• Join FlightAware (Why Join?)
  • Login
  • US Flag 
09:22PM EDT


 

Airport Tracker/Info


-or-


 

Live Flight TrackerFlight Track Log ✈ KAP550 ✈ 15-May-2013 ✈ KMSS - KALB

Flight Track Log - Related Links

Times and Time Zones

All times are in EDT time to prevent confusion due to time zone crossing. See the KAP550 flight status page for this flight to view local times or setup timezone preferences in your user account.

Time Position Orientation Groundspeed Altitude Reporting Facility
EDT Latitude Longitude Course Direction KTS MPH feet Rate Location/Type
05:19PM 44.5906 -74.9325 160° South 151 174 9,100  Level Boston Center
05:20PM 44.5453 -74.9131 163° South 164 189 9,000 -60 Descending Boston Center
05:21PM 44.4939 -74.8761 153° Southeast 184 212 9,000  Level Boston Center
05:22PM 44.4444 -74.8450 156° South 192 221 9,000  Level Boston Center
05:23PM 44.7124 -74.7312 160° South  Level FlightAware Approximate
05:23PM 44.3931 -74.8136 156° South 198 228 9,000  Level Boston Center
05:24PM 44.3439 -74.7828 156° South 198 228 9,000  Level Boston Center
05:25PM 44.2944 -74.7517 156° South 198 228 9,000  Level Boston Center
05:26PM 44.2450 -74.7208 156° South 193 222 9,000  Level Boston Center
05:27PM 44.1956 -74.6931 158° South 193 222 9,000  Level Boston Center
05:28PM 44.1461 -74.6592 154° Southeast 193 222 9,000  Level Boston Center
05:29PM 44.0967 -74.6283 156° South 193 222 9,000  Level Boston Center
05:30PM 44.0472 -74.5978 156° South 193 222 9,000 300 Level Boston Center
05:31PM 44.0000 -74.5672 155° Southeast 187 215 9,700 480 Climbing Boston Center
05:32PM 43.9567 -74.5397 155° Southeast 180 207 10,000 180 Climbing Boston Center
05:33PM 43.9050 -74.5092 157° South 187 215 10,100  Climbing Boston Center
05:34PM 43.8536 -74.4756 155° Southeast 199 229 10,100  Level Boston Center
05:35PM 43.7981 -74.4422 157° South 209 241 10,100  Level Boston Center
05:36PM 43.7444 -74.4086 156° South 209 241 10,100  Level Boston Center
05:37PM 43.6886 -74.3725 155° Southeast 214 246 10,100  Level Boston Center
05:38PM 43.6453 -74.3481 158° South 214 246 10,200  Climbing Boston Center
05:39PM 43.5917 -74.3178 158° South 214 246 10,200  Level Boston Center
05:40PM 43.5378 -74.2931 162° South 207 238 10,200  Level Boston Center
05:40PM 43.4967 -74.2689 157° South 216 249 10,200  Level Boston Center
05:41PM 43.4864 -74.2572 141° Southeast 207 238 10,200 -240 Level Boston Center
05:42PM 43.4203 -74.2094 152° Southeast 211 243 9,900 -180 Descending Boston Center
05:43PM 43.3689 -74.1767 155° Southeast 217 250 9,900 60 Level Boston Center
05:44PM 43.3153 -74.1408 154° Southeast 217 250 10,100 60 Climbing Boston Center
05:45PM 43.2594 -74.0964 150° Southeast 217 250 10,100 -480 Level Boston Center
05:46PM 43.2100 -74.0639 154° Southeast 217 250 9,200 -1,080 Descending Boston Center
05:47PM 43.1603 -74.0397 160° South 218 251 8,200 -960 Descending Boston Center
05:48PM 43.1106 -74.0128 158° South 194 223 7,500 -840 Descending Boston Center
05:49PM 43.0611 -73.9861 158° South 178 205 6,500 -900 Descending Boston Center
05:50PM 43.0072 -73.9533 156° South 189 217 5,600 -1,080 Descending Boston Center
05:51PM 42.9658 -73.9297 157° South 196 226 4,400 -1,140 Descending Boston Center
05:52PM 42.9206 -73.8775 140° Southeast 189 217 3,400 -900 Descending Boston Center
05:53PM 42.8775 -73.8369 145° Southeast 178 205 2,500 -840 Descending Boston Center
05:54PM 42.8339 -73.8161 161° South 151 174 1,700 3,720 Descending Boston Center
05:55PM 42.7950 -73.7642 136° Southeast 169 194 10,000 -600 Climbing Boston Center
05:56PM 42.7653 -73.8061 226° Southwest 96 110 500 -7,860 Descending Boston Center